Terminal Aerodrome Forecast
Issued by NWS Twin Cities, MN

Home | Current Version | Previous Version | Text Only | Print | Product List | Glossary On
Versions: 1 2 3 4 5 6 7 8 9 10 11 12 13 14 15 16 17
696
FTUS43 KMPX 271124
TAFEAU
TAF
KEAU 271124Z 2712/2812 36003KT P6SM SCT007 OVC015
      TEMPO 2712/2715 5SM BR BKN007
     FM271500 03006KT P6SM VCSH SCT009 OVC018
     FM271900 02006KT P6SM BKN025 OVC080
     FM280000 05004KT P6SM SCT030 BKN090=

USA.gov is the U.S. government's official web portal to all federal, state and local government web resources and services.